CheckWX is a tool to help pilots better visualize weather data.  It is not intended as a substitute for an official pre-flight weather briefing.

05:16:29 UTC

KMQY METAR
Smyrna Airport
Smyrna, Tennessee, USA
Current

20 mins ago

KMQY 240456Z AUTO 17007KT 10SM SCT055 OVC070 18/17 A2969 RMK AO2 LTG DSNT NW-NE SLP956 T01780167
Observed
Feb-24 @ 04:56 UTC
Wind
  • 170° at 7 KTS
Visibility
10 SM
Flight Rules
VFR
Cloud Levels
  • Scattered at 5,500' AGL
  • Overcast at 7,000' AGL
Temperature
18°C / 64°F
Dewpoint
17°C / 63°F
Humidity
94%
Altimeter
29.69" Hg
Pressure
995.6 hPa
Previous

1 hour ago

KMQY 240356Z AUTO 18007KT 10SM FEW012 BKN043 OVC065 18/17 A2972 RMK AO2 LTG DSNT W-N RAB07E38 SLP968 P0000 T01780172
Observed
Feb-24 @ 03:56 UTC
Wind
  • 180° at 7 KTS
Visibility
10 SM
Flight Rules
VFR
Cloud Levels
  • Few at 1,200' AGL
  • Broken at 4,300' AGL
  • Overcast at 6,500' AGL
Temperature
18°C / 64°F
Dewpoint
17°C / 63°F
Humidity
94%
Altimeter
29.72" Hg
Pressure
996.8 hPa
Current Rain
0.01"
Previous

2 hours ago

KMQY 240317Z AUTO 18/17 RMK AO2 RAB07RAEMM P0000 $
Observed
Feb-24 @ 03:17 UTC
Visibility
Temperature
18°C / 64°F
Dewpoint
17°C / 63°F
Humidity
94%
Current Rain
0.01"